createdAt,value
2022-10-28T00:01:04.974Z,101355.22
2022-10-28T00:03:32.316Z,101345.59
2022-10-28T00:06:07.041Z,101350.88
2022-10-28T00:08:34.135Z,101351.03
2022-10-28T00:11:10.491Z,101348.66
2022-10-28T00:13:38.877Z,101333.47
2022-10-28T00:16:07.841Z,101346.41
2022-10-28T00:18:34.713Z,101337.63
2022-10-28T00:21:08.301Z,101333.72
2022-10-28T00:23:35.912Z,101335.47
2022-10-28T00:26:12.866Z,101335.25
2022-10-28T00:28:52.105Z,101335.53
2022-10-28T00:31:20.225Z,101328.69
2022-10-28T00:33:47.368Z,101344.44
2022-10-28T00:36:19.796Z,101338.56
2022-10-28T00:38:48.301Z,101342.69
2022-10-28T00:41:22.548Z,101350.53
2022-10-28T00:44:00.868Z,101346.53
2022-10-28T00:46:43.529Z,101337.59
2022-10-28T00:49:16.470Z,101325.94
2022-10-28T00:51:46.096Z,101331.72
2022-10-28T00:54:13.763Z,101325.72
2022-10-28T00:56:44.283Z,101327.66
2022-10-28T00:59:21.348Z,101319.75
2022-10-28T01:01:48.245Z,101321.38
2022-10-28T01:04:15.482Z,101312.03
2022-10-28T01:06:43.134Z,101322.03
2022-10-28T01:09:10.488Z,101316.09
2022-10-28T01:11:37.434Z,101325.28
2022-10-28T01:14:21.632Z,101325.78
2022-10-28T01:17:13.633Z,101315.16
2022-10-28T01:19:54.024Z,101321.59
2022-10-28T01:22:32.819Z,101327.44
2022-10-28T01:25:21.048Z,101318.47
2022-10-28T01:28:08.474Z,101316.00
2022-10-28T01:31:00.622Z,101306.69
2022-10-28T01:33:36.144Z,101303.09
2022-10-28T01:36:38.392Z,101311.91
2022-10-28T01:39:14.193Z,101322.03
2022-10-28T01:42:19.249Z,101311.41
2022-10-28T01:44:55.329Z,101305.72
2022-10-28T01:48:02.512Z,101306.63
2022-10-28T01:50:35.356Z,101313.34
2022-10-28T01:53:04.670Z,101306.19
2022-10-28T01:55:35.397Z,101312.63
2022-10-28T01:58:03.613Z,101297.34
2022-10-28T02:00:32.468Z,101285.56
2022-10-28T02:02:59.214Z,101288.50
2022-10-28T02:05:37.512Z,101290.13
2022-10-28T02:08:19.910Z,101285.34
2022-10-28T02:11:10.474Z,101287.53
2022-10-28T02:14:11.893Z,101283.84
2022-10-28T02:16:43.393Z,101294.13
2022-10-28T02:19:38.422Z,101282.75
2022-10-28T02:22:19.316Z,101279.59
2022-10-28T02:25:19.808Z,101287.19
2022-10-28T02:28:09.054Z,101284.44
2022-10-28T02:30:50.584Z,101287.13
2022-10-28T02:33:25.290Z,101286.53
2022-10-28T02:35:59.358Z,101288.94
2022-10-28T02:38:36.297Z,101294.34
2022-10-28T02:41:06.802Z,101301.88
2022-10-28T02:43:35.194Z,101291.94
2022-10-28T02:46:04.210Z,101298.38
2022-10-28T02:48:38.656Z,101295.75
2022-10-28T02:51:15.536Z,101296.19
2022-10-28T02:53:55.974Z,101288.06
2022-10-28T02:56:22.861Z,101283.50
2022-10-28T02:58:50.071Z,101278.22
2022-10-28T03:01:17.283Z,101264.56
2022-10-28T03:03:44.217Z,101289.28
2022-10-28T03:21:19.157Z,101297.19
2022-10-28T03:23:45.935Z,101287.34
2022-10-28T03:26:12.658Z,101284.72
2022-10-28T03:31:38.014Z,101283.34
2022-10-28T03:34:04.929Z,101282.78
2022-10-28T03:36:31.714Z,101270.66
2022-10-28T03:38:58.443Z,101264.97
2022-10-28T03:41:25.206Z,101260.94
2022-10-28T03:43:52.103Z,101263.38
2022-10-28T03:46:18.884Z,101285.84
2022-10-28T03:48:45.635Z,101279.34
2022-10-28T03:51:12.629Z,101277.56
2022-10-28T03:53:39.397Z,101279.69
2022-10-28T03:56:06.254Z,101279.91
2022-10-28T03:58:36.121Z,101259.22
2022-10-28T04:01:06.794Z,101280.00
2022-10-28T04:03:35.347Z,101269.59
2022-10-28T04:06:02.529Z,101268.78
2022-10-28T04:08:29.396Z,101276.94
2022-10-28T04:10:56.211Z,101260.72
2022-10-28T04:13:23.698Z,101271.22
2022-10-28T04:15:50.809Z,101276.84
2022-10-28T04:18:18.791Z,101256.59
2022-10-28T04:20:46.529Z,101268.81
2022-10-28T04:23:16.072Z,101267.94
2022-10-28T04:25:43.832Z,101263.44
2022-10-28T04:28:10.691Z,101266.56
2022-10-28T04:30:37.648Z,101264.13
2022-10-28T04:33:04.705Z,101269.53
2022-10-28T04:35:31.542Z,101257.03
2022-10-28T04:38:00.672Z,101262.06
2022-10-28T04:40:27.548Z,101268.50
2022-10-28T04:42:54.960Z,101262.25
2022-10-28T04:45:22.395Z,101269.63
2022-10-28T04:47:49.131Z,101262.69
2022-10-28T04:50:15.983Z,101256.47
2022-10-28T04:52:42.975Z,101263.44
2022-10-28T04:55:09.850Z,101267.94
2022-10-28T04:57:36.634Z,101252.03
2022-10-28T05:00:04.749Z,101254.88
2022-10-28T05:02:31.660Z,101257.38
2022-10-28T05:05:03.686Z,101257.91
2022-10-28T05:07:30.699Z,101264.16
2022-10-28T05:09:57.628Z,101270.34
2022-10-28T05:12:24.551Z,101276.00
2022-10-28T05:14:53.138Z,101263.34
2022-10-28T05:17:20.584Z,101261.94
2022-10-28T05:19:47.767Z,101258.94
2022-10-28T05:22:14.707Z,101251.72
2022-10-28T05:24:41.794Z,101257.41
2022-10-28T05:27:08.938Z,101265.88
2022-10-28T05:29:35.692Z,101256.13
2022-10-28T05:32:02.621Z,101259.50
2022-10-28T05:34:29.560Z,101251.69
2022-10-28T05:36:56.997Z,101253.72
2022-10-28T05:49:20.490Z,101252.16
2022-10-28T05:51:50.366Z,101239.22
2022-10-28T05:54:19.117Z,101226.78
2022-10-28T05:56:46.635Z,101231.47
2022-10-28T05:59:14.343Z,101235.69
2022-10-28T06:01:42.784Z,101245.19
2022-10-28T06:04:37.857Z,101240.22
2022-10-28T06:07:29.389Z,101242.44
2022-10-28T06:13:44.011Z,101244.91
2022-10-28T06:16:43.191Z,101243.22
2022-10-28T06:19:21.733Z,101248.81
2022-10-28T06:21:49.527Z,101251.78
2022-10-28T06:24:17.425Z,101223.91
2022-10-28T06:26:50.964Z,101248.50
2022-10-28T06:29:23.430Z,101233.94
2022-10-28T06:31:50.388Z,101230.72
2022-10-28T06:37:21.621Z,101243.66
2022-10-28T06:42:44.261Z,101255.66
2022-10-28T06:48:00.614Z,101254.19
2022-10-28T06:50:28.306Z,101265.88
2022-10-28T06:52:56.563Z,101257.16
2022-10-28T06:55:27.467Z,101268.13
2022-10-28T06:58:09.937Z,101259.44
2022-10-28T07:00:36.939Z,101253.75
2022-10-28T07:03:04.012Z,101260.94
2022-10-28T07:05:30.903Z,101249.41
2022-10-28T07:07:57.753Z,101246.41
2022-10-28T07:10:26.050Z,101246.63
2022-10-28T07:12:53.981Z,101245.84
2022-10-28T07:15:21.774Z,101256.63
2022-10-28T07:17:59.903Z,101250.97
2022-10-28T07:20:27.827Z,101262.88
2022-10-28T07:23:01.981Z,101266.34
2022-10-28T07:25:30.137Z,101263.22
2022-10-28T07:28:00.677Z,101261.44
2022-10-28T07:30:30.109Z,101273.28
2022-10-28T07:33:01.336Z,101270.78
2022-10-28T07:35:28.795Z,101284.22
2022-10-28T07:37:55.763Z,101291.19
2022-10-28T07:40:26.597Z,101288.81
2022-10-28T07:42:53.598Z,101291.13
2022-10-28T07:45:20.889Z,101299.50
2022-10-28T07:47:47.800Z,101288.09
2022-10-28T07:50:14.674Z,101297.19
2022-10-28T07:52:41.629Z,101287.13
2022-10-28T07:55:10.494Z,101296.72
2022-10-28T07:57:38.402Z,101301.66
2022-10-28T08:00:10.701Z,101294.56
2022-10-28T08:02:38.086Z,101294.63
2022-10-28T08:05:05.547Z,101282.19
2022-10-28T08:07:34.870Z,101284.75
2022-10-28T08:10:05.190Z,101288.03
2022-10-28T08:12:32.189Z,101300.47
2022-10-28T08:14:59.035Z,101308.66
2022-10-28T08:17:26.469Z,101298.91
2022-10-28T08:20:00.007Z,101304.38
2022-10-28T08:22:27.126Z,101290.06
2022-10-28T08:24:54.735Z,101299.31
2022-10-28T08:27:21.779Z,101312.19
2022-10-28T08:29:48.635Z,101311.19
2022-10-28T08:32:15.629Z,101315.91
2022-10-28T08:34:43.701Z,101314.72
2022-10-28T08:37:11.077Z,101319.22
2022-10-28T08:39:37.873Z,101310.41
2022-10-28T08:42:47.794Z,101292.94
2022-10-28T08:45:22.712Z,101312.44
2022-10-28T08:47:55.742Z,101298.81
2022-10-28T08:50:34.986Z,101309.53
2022-10-28T08:53:37.272Z,101316.59
2022-10-28T08:56:33.864Z,101301.06
2022-10-28T08:59:07.027Z,101304.13
2022-10-28T09:01:48.619Z,101302.28
2022-10-28T09:07:21.250Z,101301.06
2022-10-28T09:13:29.880Z,101284.16
2022-10-28T09:16:23.468Z,101279.81
2022-10-28T09:18:58.069Z,101294.81
2022-10-28T09:22:07.897Z,101304.63
2022-10-28T09:25:07.488Z,101308.09
2022-10-28T09:27:59.142Z,101313.94
2022-10-28T09:30:35.376Z,101310.22
2022-10-28T09:33:14.718Z,101321.38
2022-10-28T09:35:44.631Z,101320.47
2022-10-28T09:38:36.996Z,101325.19
2022-10-28T09:41:15.806Z,101330.34
2022-10-28T09:43:54.027Z,101336.44
2022-10-28T09:46:26.942Z,101319.34
2022-10-28T09:49:03.904Z,101322.59
2022-10-28T09:52:08.014Z,101333.69
2022-10-28T09:55:10.517Z,101328.28
2022-10-28T09:57:49.469Z,101336.94
2022-10-28T10:00:18.823Z,101333.00
2022-10-28T10:02:50.040Z,101336.31
2022-10-28T10:05:18.093Z,101326.00
2022-10-28T10:07:58.186Z,101318.22
2022-10-28T10:10:32.874Z,101306.16
2022-10-28T10:13:03.775Z,101317.16
2022-10-28T10:15:38.232Z,101317.06
2022-10-28T10:18:07.986Z,101324.22
2022-10-28T10:21:04.458Z,101317.91
2022-10-28T10:23:37.212Z,101320.75
2022-10-28T10:26:15.837Z,101328.84
2022-10-28T10:31:50.889Z,101317.81
2022-10-28T10:34:31.902Z,101308.16
2022-10-28T10:36:59.986Z,101332.25
2022-10-28T10:39:29.163Z,101331.88
2022-10-28T10:41:55.880Z,101321.44
2022-10-28T10:44:22.581Z,101323.97
2022-10-28T10:46:55.571Z,101315.97
2022-10-28T10:49:22.705Z,101322.59
2022-10-28T10:51:54.347Z,101319.13
2022-10-28T10:54:21.146Z,101314.88
2022-10-28T10:56:48.083Z,101315.50
2022-10-28T10:59:28.029Z,101315.84
2022-10-28T11:01:56.651Z,101322.25
2022-10-28T11:04:25.246Z,101335.69
2022-10-28T11:06:56.539Z,101333.28
2022-10-28T11:09:38.520Z,101337.25
2022-10-28T11:12:39.051Z,101336.97
2022-10-28T11:15:09.029Z,101340.13
2022-10-28T11:17:35.958Z,101337.41
2022-10-28T11:20:34.885Z,101348.69
2022-10-28T11:23:22.907Z,101346.34
2022-10-28T11:25:51.077Z,101347.84
2022-10-28T11:28:53.127Z,101349.44
2022-10-28T11:31:53.742Z,101353.19
2022-10-28T11:34:37.903Z,101348.69
2022-10-28T11:37:16.808Z,101344.19
2022-10-28T11:39:57.141Z,101355.16
2022-10-28T11:43:02.348Z,101354.38
2022-10-28T11:45:54.682Z,101353.75
2022-10-28T11:48:46.517Z,101359.28
2022-10-28T11:51:51.918Z,101374.50
2022-10-28T12:01:49.676Z,101350.41
2022-10-28T12:04:38.204Z,101360.53
2022-10-28T12:07:11.659Z,101367.00
2022-10-28T12:09:47.803Z,101366.06
2022-10-28T12:12:26.907Z,101371.09
2022-10-28T12:15:11.369Z,101357.06
2022-10-28T12:17:40.585Z,101361.56
2022-10-28T12:20:28.383Z,101369.59
2022-10-28T12:23:24.599Z,101357.25
2022-10-28T12:25:58.364Z,101360.91
2022-10-28T12:28:30.216Z,101375.38
2022-10-28T12:30:57.842Z,101386.47
2022-10-28T12:33:42.145Z,101375.31
2022-10-28T12:36:09.053Z,101373.56
2022-10-28T12:38:57.173Z,101373.91
2022-10-28T12:41:27.584Z,101378.16
2022-10-28T12:44:00.876Z,101383.09
2022-10-28T12:46:52.311Z,101387.75
2022-10-28T12:49:37.916Z,101400.69
2022-10-28T12:52:23.567Z,101407.09
2022-10-28T12:55:06.273Z,101404.47
2022-10-28T13:00:44.076Z,101393.00
2022-10-28T13:03:15.139Z,101401.34
2022-10-28T13:05:46.869Z,101397.28
2022-10-28T13:08:23.996Z,101411.72
2022-10-28T13:11:29.485Z,101416.72
2022-10-28T13:14:24.194Z,101420.56
2022-10-28T13:17:15.960Z,101419.97
2022-10-28T13:20:21.512Z,101413.13
2022-10-28T13:23:06.507Z,101423.06
2022-10-28T13:29:29.448Z,101424.75
2022-10-28T13:32:04.484Z,101422.06
2022-10-28T13:34:36.966Z,101428.69
2022-10-28T13:37:06.664Z,101430.75
2022-10-28T13:39:36.411Z,101424.41
2022-10-28T13:42:16.111Z,101418.53
2022-10-28T13:44:52.067Z,101405.94
2022-10-28T13:47:27.247Z,101397.13
2022-10-28T13:53:24.209Z,101410.22
2022-10-28T13:56:06.547Z,101408.59
2022-10-28T13:58:38.258Z,101400.41
2022-10-28T14:01:37.470Z,101421.22
2022-10-28T14:04:06.787Z,101416.00
2022-10-28T14:06:35.799Z,101422.34
2022-10-28T14:11:58.796Z,101434.63
2022-10-28T14:14:26.066Z,101432.22
2022-10-28T14:16:52.968Z,101428.59
2022-10-28T14:19:22.303Z,101439.66
2022-10-28T14:22:06.443Z,101439.56
2022-10-28T14:24:41.070Z,101459.78
2022-10-28T14:27:08.160Z,101458.56
2022-10-28T14:30:20.710Z,101463.41
2022-10-28T14:32:56.717Z,101448.69
2022-10-28T14:35:29.025Z,101450.28
2022-10-28T14:38:10.864Z,101463.00
2022-10-28T14:40:50.310Z,101449.84
2022-10-28T14:43:39.751Z,101470.81
2022-10-28T14:46:28.451Z,101458.53
2022-10-28T14:48:56.935Z,101454.19
2022-10-28T14:51:28.406Z,101447.13
2022-10-28T14:54:24.705Z,101457.91
2022-10-28T14:56:58.426Z,101447.41
2022-10-28T15:00:19.875Z,101455.94
2022-10-28T15:02:54.646Z,101444.66
2022-10-28T15:05:30.454Z,101455.13
2022-10-28T15:08:02.608Z,101457.66
2022-10-28T15:10:34.187Z,101464.41
2022-10-28T15:16:02.176Z,101453.47
2022-10-28T15:28:13.041Z,101468.66
2022-10-28T15:30:46.376Z,101463.19
2022-10-28T15:33:23.021Z,101481.03
2022-10-28T15:35:53.424Z,101467.38
2022-10-28T15:38:35.541Z,101468.97
2022-10-28T15:41:03.121Z,101478.72
2022-10-28T15:43:31.612Z,101488.13
2022-10-28T15:46:16.627Z,101495.44
2022-10-28T15:48:47.030Z,101485.75
2022-10-28T15:51:18.622Z,101489.25
2022-10-28T15:53:49.015Z,101498.16
2022-10-28T15:56:37.909Z,101513.47
2022-10-28T15:59:20.527Z,101487.31
2022-10-28T16:01:50.399Z,101493.28
2022-10-28T16:04:23.886Z,101507.22
2022-10-28T16:06:58.442Z,101503.13
2022-10-28T16:09:33.825Z,101502.69
2022-10-28T16:12:14.105Z,101501.47
2022-10-28T16:14:42.587Z,101507.34
2022-10-28T16:17:09.552Z,101515.72
2022-10-28T16:19:38.733Z,101516.00
2022-10-28T16:22:05.826Z,101507.00
2022-10-28T16:24:32.742Z,101507.00
2022-10-28T16:27:29.731Z,101515.25
2022-10-28T16:30:01.352Z,101517.94
2022-10-28T16:32:35.381Z,101524.22
2022-10-28T16:35:03.902Z,101507.19
2022-10-28T16:37:33.159Z,101518.09
2022-10-28T16:40:00.554Z,101527.25
2022-10-28T16:42:29.291Z,101521.22
2022-10-28T16:44:57.314Z,101532.56
2022-10-28T16:47:29.409Z,101520.69
2022-10-28T16:49:57.956Z,101535.53
2022-10-28T16:52:29.716Z,101549.03
2022-10-28T16:54:57.335Z,101549.81
2022-10-28T16:59:51.908Z,101558.00
2022-10-28T17:02:32.437Z,101566.28
2022-10-28T17:05:00.887Z,101573.75
2022-10-28T17:07:32.159Z,101576.09
2022-10-28T17:09:59.073Z,101579.59
2022-10-28T17:12:27.077Z,101567.28
2022-10-28T17:14:56.793Z,101579.13
2022-10-28T17:17:24.782Z,101576.31
2022-10-28T17:19:53.305Z,101571.97
2022-10-28T17:22:20.352Z,101567.16
2022-10-28T17:24:47.224Z,101578.94
2022-10-28T17:27:14.576Z,101582.47
2022-10-28T17:29:41.721Z,101589.59
2022-10-28T17:32:08.910Z,101595.03
2022-10-28T17:34:40.252Z,101601.47
2022-10-28T17:37:07.979Z,101589.38
2022-10-28T17:39:35.222Z,101595.06
2022-10-28T17:42:02.021Z,101608.09
2022-10-28T17:44:28.814Z,101618.09
2022-10-28T17:46:55.675Z,101613.41
2022-10-28T17:49:22.526Z,101612.38
2022-10-28T17:51:49.436Z,101613.97
2022-10-28T17:54:16.287Z,101625.41
2022-10-28T17:56:43.146Z,101628.19
2022-10-28T17:59:09.797Z,101642.91
2022-10-28T18:01:37.072Z,101642.72
2022-10-28T18:04:04.722Z,101657.69
2022-10-28T18:06:32.015Z,101646.88
2022-10-28T18:08:58.757Z,101647.84
2022-10-28T18:11:27.347Z,101648.38
2022-10-28T18:13:56.017Z,101649.72
2022-10-28T18:16:25.338Z,101639.13
2022-10-28T18:18:53.358Z,101631.00
2022-10-28T18:21:20.775Z,101637.25
2022-10-28T18:23:53.811Z,101641.91
2022-10-28T18:26:21.383Z,101650.97
2022-10-28T18:28:49.160Z,101646.19
2022-10-28T18:31:19.402Z,101649.75
2022-10-28T18:33:47.648Z,101653.22
2022-10-28T18:36:17.144Z,101652.78
2022-10-28T18:38:44.067Z,101649.59
2022-10-28T18:41:12.136Z,101650.75
2022-10-28T18:43:40.244Z,101646.84
2022-10-28T18:46:07.636Z,101642.50
2022-10-28T18:48:34.908Z,101644.16
2022-10-28T18:51:06.690Z,101645.41
2022-10-28T18:53:38.615Z,101644.59
2022-10-28T18:56:07.198Z,101644.16
2022-10-28T18:58:34.266Z,101648.41
2022-10-28T19:01:11.268Z,101652.59
2022-10-28T19:03:38.405Z,101651.69
2022-10-28T19:06:11.083Z,101657.25
2022-10-28T19:08:38.009Z,101663.06
2022-10-28T19:11:15.674Z,101675.91
2022-10-28T19:13:44.234Z,101679.16
2022-10-28T19:18:47.508Z,101680.63
2022-10-28T19:21:15.974Z,101688.03
2022-10-28T19:23:43.649Z,101682.16
2022-10-28T19:26:11.349Z,101696.28
2022-10-28T19:28:40.146Z,101692.81
2022-10-28T19:31:09.474Z,101684.03
2022-10-28T19:33:38.351Z,101682.28
2022-10-28T19:36:10.626Z,101678.75
2022-10-28T19:38:38.229Z,101673.41
2022-10-28T19:41:10.205Z,101677.69
2022-10-28T19:43:37.380Z,101698.22
2022-10-28T19:46:38.563Z,101697.41
2022-10-28T19:51:50.181Z,101717.88
2022-10-28T19:54:26.836Z,101721.06
2022-10-28T19:56:57.502Z,101724.41
2022-10-28T19:59:24.297Z,101724.16
2022-10-28T20:01:51.087Z,101718.19
2022-10-28T20:04:18.008Z,101724.53
2022-10-28T20:06:44.774Z,101713.72
2022-10-28T20:09:11.519Z,101711.47
2022-10-28T20:11:42.127Z,101719.13
2022-10-28T20:14:31.175Z,101717.88
2022-10-28T20:17:05.437Z,101714.84
2022-10-28T20:19:33.899Z,101720.88
2022-10-28T20:22:00.595Z,101733.63
2022-10-28T20:24:27.496Z,101733.00
2022-10-28T20:26:54.182Z,101729.00
2022-10-28T20:29:20.961Z,101733.19
2022-10-28T20:31:47.836Z,101728.63
2022-10-28T20:34:14.692Z,101733.69
2022-10-28T20:36:45.593Z,101736.50
2022-10-28T20:39:15.305Z,101739.78
2022-10-28T20:41:43.108Z,101738.03
2022-10-28T20:44:09.974Z,101734.78
2022-10-28T20:46:37.068Z,101733.94
2022-10-28T20:49:04.728Z,101744.44
2022-10-28T20:51:32.860Z,101742.56
2022-10-28T20:53:59.877Z,101745.66
2022-10-28T20:56:28.627Z,101742.59
2022-10-28T20:58:56.318Z,101743.09
2022-10-28T21:01:42.851Z,101756.59
2022-10-28T21:04:11.175Z,101748.69
2022-10-28T21:06:39.566Z,101743.66
2022-10-28T21:09:06.840Z,101749.84
2022-10-28T21:11:33.665Z,101750.31
2022-10-28T21:14:02.371Z,101763.09
2022-10-28T21:16:30.133Z,101747.28
2022-10-28T21:18:57.990Z,101746.59
2022-10-28T21:21:25.465Z,101752.72
2022-10-28T21:23:52.601Z,101764.00
2022-10-28T21:26:19.428Z,101763.19
2022-10-28T21:28:51.825Z,101762.47
2022-10-28T21:31:19.791Z,101764.16
2022-10-28T21:33:46.840Z,101758.22
2022-10-28T21:36:16.118Z,101756.41
2022-10-28T21:38:43.177Z,101754.22
2022-10-28T21:44:04.764Z,101751.66
2022-10-28T21:46:31.999Z,101756.50
2022-10-28T21:48:58.728Z,101760.25
2022-10-28T21:51:25.406Z,101757.50
2022-10-28T21:53:53.112Z,101759.44
2022-10-28T21:56:20.273Z,101758.66
2022-10-28T21:58:48.370Z,101751.00
2022-10-28T22:01:19.683Z,101753.25
2022-10-28T22:03:46.932Z,101756.69
2022-10-28T22:06:13.772Z,101765.31
2022-10-28T22:08:40.823Z,101759.75
2022-10-28T22:11:10.432Z,101760.94
2022-10-28T22:13:37.405Z,101764.25
2022-10-28T22:16:06.438Z,101763.72
2022-10-28T22:18:35.356Z,101767.72
2022-10-28T22:21:12.781Z,101759.41
2022-10-28T22:23:39.745Z,101756.78
2022-10-28T22:28:34.924Z,101760.44
2022-10-28T22:31:03.658Z,101755.13
2022-10-28T22:33:30.508Z,101761.16
2022-10-28T22:36:05.372Z,101768.88
2022-10-28T22:38:32.332Z,101767.88
2022-10-28T22:43:29.200Z,101764.75
2022-10-28T22:45:57.270Z,101762.22
2022-10-28T22:48:24.648Z,101752.44
2022-10-28T22:50:51.872Z,101753.94
2022-10-28T22:53:19.223Z,101750.50
2022-10-28T22:55:47.000Z,101752.44
2022-10-28T22:58:14.056Z,101753.94
2022-10-28T23:00:41.002Z,101759.56
2022-10-28T23:03:07.956Z,101759.63
2022-10-28T23:05:34.851Z,101760.00
2022-10-28T23:08:01.603Z,101747.19
2022-10-28T23:10:28.797Z,101751.00
2022-10-28T23:12:59.996Z,101761.22
2022-10-28T23:15:27.719Z,101768.75
2022-10-28T23:17:55.155Z,101760.00
2022-10-28T23:20:24.553Z,101765.22
2022-10-28T23:22:51.362Z,101769.22
2022-10-28T23:25:18.124Z,101762.47
2022-10-28T23:27:44.823Z,101763.28
2022-10-28T23:30:16.099Z,101765.25
2022-10-28T23:32:42.941Z,101756.75
2022-10-28T23:35:24.797Z,101747.38
2022-10-28T23:37:53.510Z,101753.28
2022-10-28T23:40:20.562Z,101751.38
2022-10-28T23:42:47.265Z,101747.19
2022-10-28T23:45:14.029Z,101738.53
2022-10-28T23:47:40.663Z,101750.41
2022-10-28T23:50:10.926Z,101742.78
2022-10-28T23:52:37.860Z,101756.25
2022-10-28T23:55:05.272Z,101747.38
2022-10-28T23:57:32.010Z,101746.13
2022-10-28T23:59:58.778Z,101733.25
